• Join FlightAware (Why Join?)
  • Login
  • US Flag 
02:01AM EST


 

Airport Tracker/Info


-or-


 

Live Flight TrackerFlight Track Log ✈ SWA385 ✈ 09-Jul-2013 ✈ KIAD - KMDW

Flight Track Log - Related Links

Times and Time Zones

All times are in EDT time to prevent confusion due to time zone crossing. See the SWA385 flight status page for this flight to view local times or setup timezone preferences in your user account.

Time Position Orientation Groundspeed Altitude Reporting Facility
EDT Latitude Longitude Course Direction KTS MPH feet Rate Location/Type
04:43PM 38.9000 -77.4667 222° Southwest 185 213 2,100  Level Potomac TRACON
04:45PM 38.8203 -77.5581 222° Southwest 231 266 6,600 3,120 Climbing Washington Center
04:46PM 38.8228 -77.6514 272° West 231 266 10,700 3,120 Climbing Washington Center
04:47PM 38.8314 -77.7528 276° West 288 331 12,900 2,520 Climbing Washington Center
04:48PM 38.8378 -77.8622 274° West 338 389 15,900 2,880 Climbing Washington Center
04:49PM 38.8433 -78.0064 273° West 355 409 18,800 2,700 Climbing Washington Center
04:50PM 38.8489 -78.1372 273° West 367 422 21,400 2,520 Climbing Washington Center
04:51PM 38.8522 -78.2758 272° West 383 441 23,800 2,160 Climbing Washington Center
04:52PM 38.8508 -78.4253 269° West 398 458 25,800 2,040 Climbing Washington Center
04:53PM 38.8514 -78.5797 270° West 422 486 28,000 2,040 Climbing Washington Center
04:54PM 38.8472 -78.7342 268° West 428 493 30,000 2,040 Climbing Washington Center
04:55PM 38.8453 -78.8914 269° West 439 505 32,100 2,220 Climbing Washington Center
04:56PM 38.8431 -79.0458 269° West 439 505 34,500 1,920 Climbing Washington Center
04:57PM 38.8406 -79.1950 269° West 439 505 36,000 1,260 Climbing Washington Center
04:58PM 38.8381 -79.3494 269° West 439 505 37,100 1,140 Climbing Washington Center
04:59PM 38.8247 -79.5033 264° West 439 505 38,400 1,320 Climbing Washington Center
05:00PM 38.7967 -79.6617 257° West 446 513 39,700 780 Climbing Washington Center
05:01PM 38.7694 -79.7828 254° West 451 519 40,000 120 Climbing Washington Center
05:02PM 38.7389 -79.9156 254° West 444 511 40,000  Level Indianapolis Center
05:03PM 38.7069 -80.0658 255° West 440 506 40,000  Level Indianapolis Center
05:04PM 38.6692 -80.2453 255° West 435 501 40,000  Level Indianapolis Center
05:05PM 38.6519 -80.3986 262° West 435 501 40,000  Level Indianapolis Center
05:06PM 38.6614 -80.5472 275° West 421 484 40,000  Level Indianapolis Center
05:07PM 38.6731 -80.6975 276° West 426 490 40,000  Level Indianapolis Center
05:08PM 38.6825 -80.8458 275° West 420 483 40,000  Level Indianapolis Center
05:09PM 38.6919 -80.9978 275° West 425 489 40,000  Level Indianapolis Center
05:10PM 38.7022 -81.1469 275° West 422 486 40,000  Level Indianapolis Center
05:11PM 38.7142 -81.3297 275° West 431 496 40,000  Level Indianapolis Center
05:12PM 38.7225 -81.4728 274° West 434 499 40,000  Level Indianapolis Center
05:13PM 38.7339 -81.6536 275° West 436 502 40,000  Level Indianapolis Center
05:14PM 38.7408 -81.7783 274° West 431 496 40,000  Level Indianapolis Center
05:15PM 38.7508 -81.9606 274° West 429 494 40,000  Level Indianapolis Center
05:16PM 38.7517 -82.1144 270° West 435 501 40,000  Level Indianapolis Center
05:17PM 38.7464 -82.2675 268° West 433 498 40,000  Level Indianapolis Center
05:18PM 38.7397 -82.4206 267° West 432 497 40,000  Level Indianapolis Center
05:19PM 38.7350 -82.5742 268° West 432 497 40,000  Level Indianapolis Center
05:20PM 38.7269 -82.7289 266° West 433 498 40,000  Level Indianapolis Center
05:21PM 38.7206 -82.8828 267° West 434 499 40,000  Level Indianapolis Center
05:22PM 38.7119 -83.0711 267° West 440 506 40,000  Level Indianapolis Center
05:23PM 38.7047 -83.2200 266° West 442 509 40,000  Level Indianapolis Center
05:24PM 38.6981 -83.3769 267° West 439 505 40,000 -480 Level Indianapolis Center
05:25PM 38.6894 -83.5353 266° West 441 507 39,100 -540 Descending Indianapolis Center
05:26PM 38.6817 -83.6964 267° West 447 514 39,000 -60 Descending Indianapolis Center
05:27PM 38.6725 -83.8800 266° West 440 506 39,000 -360 Level Indianapolis Center
05:28PM 38.6633 -84.0411 266° West 446 513 38,300 -840 Descending Indianapolis Center
05:29PM 38.6547 -84.2028 266° West 451 519 37,300 -1,020 Descending Indianapolis Center
05:30PM 38.6900 -84.3436 288° West 427 491 36,300 -660 Descending Indianapolis Center
05:31PM 38.7906 -84.4189 330° Northwest 410 472 36,000 -300 Descending Indianapolis Center
05:32PM 38.8947 -84.4803 335° Northwest 406 467 35,700 -660 Descending Indianapolis Center
05:34PM 38.9983 -84.5467 334° Northwest 411 473 34,700 -1,440 Descending Indianapolis Center
05:35PM 39.1056 -84.6119 335° Northwest 418 481 32,800 -2,040 Descending Indianapolis Center
05:36PM 39.2122 -84.6744 336° Northwest 418 481 30,600 -1,620 Descending Indianapolis Center
05:37PM 39.3208 -84.7350 337° Northwest 419 482 29,500 -1,200 Descending Indianapolis Center
05:38PM 39.4386 -84.8086 334° Northwest 408 470 28,200 -780 Descending Indianapolis Center
05:39PM 39.5100 -84.8872 320° Northwest 400 460 28,000 -120 Descending Indianapolis Center
05:40PM 39.6153 -85.0069 319° Northwest 417 480 28,000  Level Indianapolis Center
05:41PM 39.7017 -85.1058 319° Northwest 416 479 28,000  Level Indianapolis Center
05:42PM 39.7897 -85.2053 319° Northwest 420 483 28,000  Level Indianapolis Center
05:43PM 39.8764 -85.3053 318° Northwest 420 483 28,000  Level Indianapolis Center
05:44PM 39.9644 -85.4053 319° Northwest 422 486 28,000 -600 Level Indianapolis Center
05:45PM 40.0694 -85.5256 319° Northwest 422 486 26,800 -1,080 Descending Indianapolis Center
05:46PM 40.1561 -85.6256 319° Northwest 421 484 25,800 -1,020 Descending Indianapolis Center
05:47PM 40.2408 -85.7236 319° Northwest 413 475 24,800 -900 Descending Indianapolis Center
05:48PM 40.3350 -85.8067 326° Northwest 411 473 24,000 -720 Descending Indianapolis Center
05:49PM 40.4292 -85.8886 326° Northwest 409 471 23,400 -840 Descending Indianapolis Center
05:50PM 40.5219 -85.9683 327° Northwest 404 465 22,300 -1,140 Descending Indianapolis Center
05:51PM 40.6308 -86.0647 326° Northwest 397 457 21,100 -1,020 Descending Indianapolis Center
05:52PM 40.7208 -86.1425 327° Northwest 391 450 20,300 -1,500 Descending Indianapolis Center
05:53PM 40.8072 -86.2194 326° Northwest 380 437 18,100 -2,100 Descending Indianapolis Center
05:54PM 40.8911 -86.2942 326° Northwest 359 413 16,000 -2,340 Descending Chicago Center
05:55PM 40.9708 -86.3631 327° Northwest 346 398 13,300 -2,400 Descending Chicago Center
05:56PM 41.0483 -86.4358 325° Northwest 342 394 11,100 -1,260 Descending Chicago Center
05:57PM 41.1089 -86.5497 305° West 315 362 10,800 -540 Descending Chicago Center
05:58PM 41.1675 -86.6372 312° West 317 365 10,000 -420 Descending Chicago Center
05:59PM 41.2306 -86.7283 313° West 316 364 10,000  Level Chicago Center
06:00PM 41.2853 -86.8144 310° West 310 357 10,000  Level Chicago Center
06:01PM 41.3428 -86.8997 312° West 311 358 10,000 -120 Level Chicago Center
06:02PM 41.3967 -86.9786 312° West 294 338 9,800 -900 Descending Chicago Center
06:03PM 41.4439 -87.0500 311° West 266 306 8,200 -1,800 Descending Chicago Center
06:04PM 41.4889 -87.1464 302° West 267 307 6,200 -1,440 Descending Chicago Center
06:06PM 41.5136 -87.2333 291° West 254 292 5,300 -960 Descending Chicago Center
06:07PM 41.5394 -87.3206 292° West 255 293 4,300 -660 Descending Chicago Center
06:08PM 41.5669 -87.4072 293° West 255 293 4,000 -180 Descending Chicago Center
06:09PM 41.5942 -87.4853 295° West 246 283 4,000  Level Chicago Center
06:10PM 41.6444 -87.5558 314° West 227 261 4,000 -180 Level Chicago Center
06:11PM 41.6839 -87.6083 315° West 216 249 3,700 -660 Descending Chicago Center
06:12PM 41.7167 -87.6575 312° West 198 228 2,700 -780 Descending Chicago Center
06:13PM 41.7567 -87.6947 325° Northwest 202 232 2,200 -300 Descending Chicago Center
06:14PM 41.8072 -87.6767 15° North 183 211 2,100 -540 Descending Chicago Center
06:15PM 41.8100 -87.7206 275° West 162 186 1,200 -540 Descending Chicago Center
06:16PM 41.7889 -87.7583 233° Southwest 156 180 1,100 -120 Descending Chicago Center
06:18PM 41.7833 -87.7500 North  Level FlightAware Approximate